Time;durP1;ratioP1;P1;durP2;ratioP2;P2;SDS_P1;SDS_P2;PMS_P1;PMS_P2;Temp;Humidity;BMP_temperature;BMP_pressure;BME280_temperature;BME280_humidity;BME280_pressure;Samples;Min_cycle;Max_cycle;Signal;HPM_P1;HPM_P2
2023/02/11 00:02:13;;;;;;;9.27;2.42;;;13.50;99.90;;;;;;10524113;28;20049;-25
2023/02/11 00:07:15;;;;;;;15.65;3.90;;;13.00;97.10;;;;;;10532852;28;20119;-25
2023/02/11 00:12:18;;;;;;;25.42;3.65;;;13.20;96.90;;;;;;10538293;28;20094;-24
2023/02/11 00:17:21;;;;;;;19.38;3.58;;;14.50;94.40;;;;;;10519380;28;20044;-24
2023/02/11 00:22:23;;;;;;;20.05;3.50;;;12.10;97.80;;;;;;10529851;28;20472;-25
2023/02/11 00:27:25;;;;;;;32.70;3.85;;;12.10;99.90;;;;;;10527151;28;20101;-25
2023/02/11 00:32:28;;;;;;;11.10;2.45;;;11.90;99.90;;;;;;10511603;28;20054;-24
2023/02/11 00:37:30;;;;;;;16.38;3.42;;;14.60;95.00;;;;;;10527360;28;20162;-25
2023/02/11 00:42:34;;;;;;;6.20;1.80;;;13.30;98.60;;;;;;10511633;28;20659;-26
2023/02/11 00:47:37;;;;;;;11.57;2.70;;;13.30;99.60;;;;;;10540865;28;20051;-23
2023/02/11 00:52:39;;;;;;;13.85;3.35;;;14.10;94.60;;;;;;10537034;28;20059;-23
2023/02/11 00:57:41;;;;;;;10.73;2.95;;;12.70;99.90;;;;;;10540683;28;20139;-24
2023/02/11 01:02:44;;;;;;;5.40;1.92;;;13.70;96.00;;;;;;10556640;28;20143;-24
2023/02/11 01:07:46;;;;;;;22.73;4.80;;;15.80;85.30;;;;;;10546363;28;20138;-25
2023/02/11 01:12:48;;;;;;;16.70;4.20;;;12.50;97.70;;;;;;10532703;28;20116;-25
2023/02/11 01:17:51;;;;;;;16.10;3.97;;;12.10;99.90;;;;;;10537871;28;20147;-26
2023/02/11 01:22:53;;;;;;;13.45;3.47;;;11.00;99.90;;;;;;10531538;28;20132;-25
2023/02/11 01:27:55;;;;;;;14.32;2.95;;;13.90;96.60;;;;;;10538470;28;20087;-25
2023/02/11 01:32:58;;;;;;;12.80;3.88;;;13.60;96.40;;;;;;10525303;28;20066;-25
2023/02/11 01:38:00;;;;;;;14.05;3.80;;;13.90;95.20;;;;;;10534066;28;20056;-24
2023/02/11 01:43:02;;;;;;;8.27;3.43;;;11.70;99.90;;;;;;10532825;28;20585;-25
2023/02/11 01:48:05;;;;;;;13.33;4.23;;;12.40;99.90;;;;;;10525949;28;20052;-26
2023/02/11 01:58:26;;;;;;;13.05;3.30;;;10.10;99.90;;;;;;10524257;28;20049;-23
2023/02/11 02:03:30;;;;;;;;;;;13.00;99.90;;;;;;10524569;28;20082;-24
2023/02/11 02:08:38;;;;;;;17.02;5.53;;;12.90;99.90;;;;;;10534240;28;20008;-25
2023/02/11 02:13:40;;;;;;;13.15;4.10;;;13.60;96.80;;;;;;10515297;28;20056;-22
2023/02/11 02:18:53;;;;;;;11.50;5.33;;;13.20;97.40;;;;;;10518598;28;20493;-25
2023/02/11 02:24:21;;;;;;;22.38;7.03;;;11.40;99.90;;;;;;10527797;28;20345;-26
2023/02/11 02:30:03;;;;;;;20.08;6.70;;;10.40;99.90;;;;;;10522139;28;20083;-24
2023/02/11 02:35:14;;;;;;;26.42;7.68;;;9.60;99.90;;;;;;10463489;28;20562;-24
2023/02/11 02:40:20;;;;;;;26.52;9.07;;;9.40;99.90;;;;;;10513976;28;20125;-26
2023/02/11 02:45:22;;;;;;;19.58;7.38;;;9.10;99.90;;;;;;10540006;28;20488;-24
2023/02/11 02:50:30;;;;;;;16.92;5.82;;;9.50;99.90;;;;;;10530279;28;20122;-24
2023/02/11 02:55:49;;;;;;;27.88;8.88;;;11.20;99.90;;;;;;10525950;28;20059;-24
2023/02/11 03:01:03;;;;;;;21.40;8.57;;;9.80;99.90;;;;;;10530184;28;20097;-26
2023/02/11 03:06:13;;;;;;;24.02;6.47;;;10.80;99.90;;;;;;10530120;28;20046;-24
2023/02/11 03:11:18;;;;;;;18.45;8.10;;;12.20;99.90;;;;;;10534923;28;20556;-25
2023/02/11 03:16:23;;;;;;;25.48;9.00;;;10.60;99.90;;;;;;10514433;28;20627;-24
2023/02/11 03:21:26;;;;;;;15.43;5.65;;;12.00;99.90;;;;;;10526009;28;20218;-25
2023/02/11 03:26:30;;;;;;;19.30;8.10;;;11.90;99.90;;;;;;10539550;28;20048;-24
2023/02/11 03:31:36;;;;;;;19.45;8.50;;;11.70;99.90;;;;;;10532122;28;20444;-25
2023/02/11 03:36:46;;;;;;;25.73;9.90;;;12.10;99.90;;;;;;10528637;28;20381;-24
2023/02/11 03:41:49;;;;;;;16.05;5.22;;;12.00;99.90;;;;;;10540418;28;20070;-26
2023/02/11 03:46:53;;;;;;;9.23;3.80;;;13.90;98.30;;;;;;10534524;28;20135;-29
2023/02/11 03:51:58;;;;;;;13.82;4.72;;;14.10;97.50;;;;;;10527908;28;20072;-23
2023/02/11 03:57:01;;;;;;;18.55;6.78;;;13.20;99.90;;;;;;10522756;28;20056;-25
2023/02/11 04:02:03;;;;;;;26.02;8.80;;;12.70;99.90;;;;;;10523915;28;20135;-26
2023/02/11 04:07:06;;;;;;;13.38;4.72;;;10.10;99.90;;;;;;10541366;28;20105;-25
2023/02/11 04:12:08;;;;;;;15.23;6.38;;;12.10;99.90;;;;;;10524709;28;20110;-24
2023/02/11 04:17:11;;;;;;;12.63;5.38;;;12.70;99.90;;;;;;10544723;28;20047;-25
2023/02/11 04:22:14;;;;;;;8.50;3.92;;;12.60;99.90;;;;;;10539419;28;20399;-26
2023/02/11 04:27:16;;;;;;;18.90;6.68;;;12.70;99.90;;;;;;10528507;28;20572;-25
2023/02/11 04:32:18;;;;;;;21.93;9.10;;;10.60;99.90;;;;;;10531502;28;20521;-24
2023/02/11 04:37:21;;;;;;;13.45;6.15;;;10.90;99.90;;;;;;10532830;28;20053;-24
2023/02/11 04:42:23;;;;;;;19.05;9.55;;;11.00;99.90;;;;;;10538609;28;20139;-25
2023/02/11 04:47:25;;;;;;;10.77;4.80;;;11.40;99.90;;;;;;10528457;28;20095;-26
2023/02/11 04:52:28;;;;;;;12.00;4.73;;;12.60;99.90;;;;;;10522562;28;20134;-26
2023/02/11 04:57:30;;;;;;;22.73;7.53;;;13.20;99.90;;;;;;10532158;28;20563;-25
2023/02/11 05:02:32;;;;;;;10.75;4.88;;;13.00;99.90;;;;;;10530918;28;20484;-25
2023/02/11 05:07:35;;;;;;;14.20;7.20;;;13.90;98.70;;;;;;10541331;28;20067;-23
2023/02/11 05:12:37;;;;;;;17.50;7.18;;;13.00;99.90;;;;;;10521812;28;20052;-25
2023/02/11 05:17:39;;;;;;;11.40;5.18;;;12.20;99.90;;;;;;10532317;28;20044;-24
2023/02/11 05:22:42;;;;;;;27.17;10.82;;;12.20;99.90;;;;;;10514621;28;20146;-24
2023/02/11 05:27:44;;;;;;;13.27;5.40;;;13.10;99.90;;;;;;10532496;28;20050;-27
2023/02/11 05:32:46;;;;;;;10.32;5.93;;;13.50;99.80;;;;;;10521092;28;20106;-27
2023/02/11 05:37:49;;;;;;;25.85;11.30;;;12.90;99.90;;;;;;10515277;28;20052;-27
2023/02/11 05:42:51;;;;;;;22.95;11.05;;;11.90;99.90;;;;;;10518469;28;20447;-26
2023/02/11 05:47:53;;;;;;;23.35;9.90;;;11.70;99.90;;;;;;10537325;28;20068;-25
2023/02/11 05:52:56;;;;;;;13.93;7.30;;;12.00;99.90;;;;;;10521561;28;20155;-24
2023/02/11 05:57:58;;;;;;;13.15;5.68;;;10.30;99.90;;;;;;10525900;28;20136;-23
2023/02/11 06:03:00;;;;;;;23.07;9.97;;;11.20;99.90;;;;;;10524958;28;20127;-24
2023/02/11 06:08:04;;;;;;;20.13;8.90;;;11.00;99.90;;;;;;10525174;28;20135;-25
2023/02/11 06:13:06;;;;;;;12.77;5.90;;;13.20;99.90;;;;;;10519444;28;20142;-25
2023/02/11 06:18:08;;;;;;;14.52;5.32;;;12.60;99.90;;;;;;10513744;28;20083;-25
2023/02/11 06:23:11;;;;;;;11.23;5.23;;;13.50;99.90;;;;;;10518814;28;20254;-25
2023/02/11 06:28:13;;;;;;;22.90;12.52;;;13.40;99.90;;;;;;10518120;28;20446;-24
2023/02/11 06:33:15;;;;;;;20.25;7.80;;;11.60;99.90;;;;;;10513332;28;20142;-25
2023/02/11 06:38:19;;;;;;;19.40;9.95;;;13.60;99.90;;;;;;10521778;28;20412;-25
2023/02/11 06:43:20;;;;;;;15.10;7.07;;;11.90;99.90;;;;;;10518958;28;20464;-25
2023/02/11 06:48:23;;;;;;;24.93;12.40;;;12.10;99.90;;;;;;10504938;28;20052;-25
2023/02/11 06:53:26;;;;;;;;;;;11.80;99.90;;;;;;10527395;28;20105;-25
2023/02/11 06:58:28;;;;;;;18.48;8.77;;;12.30;99.90;;;;;;10517384;28;19971;-25
2023/02/11 07:15:05;;;;;;;5.55;3.33;;;13.80;99.90;;;;;;10553777;27;20131;-25
2023/02/11 07:20:07;;;;;;;18.55;10.55;;;13.60;99.90;;;;;;10529226;28;20072;-26
2023/02/11 07:25:09;;;;;;;8.57;2.90;;;13.90;99.60;;;;;;10537940;28;20043;-25
2023/02/11 07:30:14;;;;;;;13.63;7.37;;;14.70;97.80;;;;;;10541497;28;20079;-24
2023/02/11 07:35:16;;;;;;;27.15;11.80;;;13.90;99.90;;;;;;10536163;28;20055;-24
2023/02/11 07:40:18;;;;;;;19.67;10.07;;;12.30;99.90;;;;;;10540345;28;20140;-24
2023/02/11 07:45:21;;;;;;;18.07;6.47;;;12.10;99.90;;;;;;10544471;28;20576;-25
2023/02/11 07:50:23;;;;;;;22.70;10.52;;;13.00;99.90;;;;;;10540102;28;20071;-25
2023/02/11 07:55:25;;;;;;;19.73;10.30;;;13.00;99.90;;;;;;10542420;28;20064;-25
2023/02/11 08:00:29;;;;;;;18.17;9.27;;;12.50;99.90;;;;;;10546503;28;20039;-25
2023/02/11 08:05:31;;;;;;;19.50;8.05;;;12.20;99.90;;;;;;10539342;28;20093;-25
2023/02/11 08:10:33;;;;;;;22.58;9.88;;;12.50;99.90;;;;;;10538956;28;20146;-25
2023/02/11 08:15:36;;;;;;;21.23;9.20;;;12.00;99.90;;;;;;10540390;28;20139;-25
2023/02/11 08:20:38;;;;;;;17.63;9.27;;;12.10;99.90;;;;;;10544388;28;20048;-25
2023/02/11 08:25:40;;;;;;;15.57;9.65;;;11.60;99.90;;;;;;10515242;28;20040;-24
2023/02/11 08:30:43;;;;;;;20.83;10.20;;;12.50;99.90;;;;;;10510091;28;20070;-25
2023/02/11 08:35:45;;;;;;;17.05;7.65;;;12.00;99.90;;;;;;10511059;28;20131;-25
2023/02/11 08:40:48;;;;;;;7.35;3.72;;;11.70;99.90;;;;;;10513265;28;20147;-25
2023/02/11 08:45:51;;;;;;;16.83;6.88;;;13.40;99.90;;;;;;10516620;28;20422;-25
2023/02/11 08:50:53;;;;;;;9.10;4.63;;;14.00;99.90;;;;;;10528419;28;20048;-28
2023/02/11 08:55:55;;;;;;;22.93;6.63;;;13.30;99.90;;;;;;10531902;28;20044;-25
2023/02/11 09:00:58;;;;;;;5.97;4.13;;;12.10;99.90;;;;;;10523331;28;20162;-26
2023/02/11 09:06:04;;;;;;;8.38;3.85;;;14.30;99.90;;;;;;10528492;28;20048;-24
2023/02/11 09:11:06;;;;;;;4.80;2.40;;;14.00;99.90;;;;;;10521742;28;20055;-24
2023/02/11 09:16:16;;;;;;;12.95;6.00;;;14.90;99.90;;;;;;10522266;28;20086;-23
2023/02/11 09:21:20;;;;;;;17.75;7.18;;;13.40;99.90;;;;;;10527814;28;20541;-25
2023/02/11 09:26:24;;;;;;;19.02;7.85;;;12.90;99.90;;;;;;10514866;28;20101;-25
2023/02/11 09:31:30;;;;;;;12.48;5.65;;;12.80;99.90;;;;;;10513646;28;20138;-31
2023/02/11 09:36:33;;;;;;;17.15;7.28;;;13.80;99.90;;;;;;10533631;28;20040;-25
2023/02/11 09:41:55;;;;;;;16.52;6.28;;;14.70;99.00;;;;;;10526282;28;20382;-24
2023/02/11 09:47:01;;;;;;;6.13;2.17;;;14.90;99.20;;;;;;10512320;28;20127;-26
2023/02/11 09:52:07;;;;;;;21.17;9.27;;;16.00;95.30;;;;;;10511035;28;20127;-25
2023/02/11 09:57:09;;;;;;;11.15;5.47;;;14.00;99.90;;;;;;10524889;28;20126;-24
2023/02/11 10:02:23;;;;;;;17.17;9.38;;;14.20;99.90;;;;;;10509266;28;20044;-24
2023/02/11 10:07:34;;;;;;;14.68;8.15;;;14.10;99.90;;;;;;10513999;28;20797;-25
2023/02/11 10:12:54;;;;;;;15.63;8.25;;;14.50;99.90;;;;;;10509318;28;20062;-24
2023/02/11 10:18:14;;;;;;;6.55;3.65;;;12.90;99.90;;;;;;10519593;28;20131;-25
2023/02/11 10:23:20;;;;;;;11.95;7.10;;;14.50;99.90;;;;;;10509962;28;20120;-25
2023/02/11 10:28:24;;;;;;;24.20;9.52;;;13.70;99.90;;;;;;10547632;28;20135;-25
2023/02/11 10:33:32;;;;;;;12.73;7.15;;;13.70;99.90;;;;;;10541684;28;20055;-25
2023/02/11 10:38:35;;;;;;;8.98;4.78;;;14.30;99.90;;;;;;10511440;28;20157;-31
2023/02/11 10:43:37;;;;;;;16.73;8.43;;;14.70;97.60;;;;;;10510571;28;20523;-23
2023/02/11 10:48:42;;;;;;;5.37;2.87;;;12.70;99.90;;;;;;10517321;28;20476;-25
2023/02/11 10:53:45;;;;;;;10.90;4.35;;;15.80;96.70;;;;;;10509063;28;20044;-24
2023/02/11 10:58:55;;;;;;;2.92;1.98;;;13.50;99.90;;;;;;10513872;28;20048;-25
2023/02/11 11:03:59;;;;;;;7.72;2.75;;;16.60;93.50;;;;;;10521960;28;20161;-27
2023/02/11 11:09:00;;;;;;;11.70;4.45;;;15.20;99.50;;;;;;10522029;28;20056;-25
2023/02/11 11:14:03;;;;;;;17.60;6.63;;;14.70;99.90;;;;;;10517887;28;20059;-24
2023/02/11 11:19:23;;;;;;;14.47;7.80;;;14.60;99.90;;;;;;10525058;28;20079;-25
2023/02/11 11:24:29;;;;;;;15.85;7.75;;;15.40;98.60;;;;;;10528081;28;20493;-25
2023/02/11 11:29:35;;;;;;;12.18;3.88;;;14.70;99.90;;;;;;10524297;28;20051;-25
2023/02/11 11:34:41;;;;;;;18.38;10.85;;;15.60;96.80;;;;;;10513876;28;20079;-25
2023/02/11 11:39:53;;;;;;;20.15;7.78;;;15.30;97.60;;;;;;10514552;28;20048;-22
2023/02/11 11:44:58;;;;;;;11.70;4.33;;;14.00;99.90;;;;;;10521786;28;20061;-24
2023/02/11 11:50:18;;;;;;;11.82;3.42;;;16.60;91.40;;;;;;10517352;28;20107;-25
2023/02/11 11:55:22;;;;;;;16.60;8.50;;;14.90;99.30;;;;;;10508002;28;20054;-24
2023/02/11 12:00:31;;;;;;;22.83;9.15;;;16.90;91.50;;;;;;10514072;28;20128;-26
2023/02/11 12:05:42;;;;;;;5.93;3.33;;;15.90;93.70;;;;;;10526322;28;20063;-26
2023/02/11 12:10:55;;;;;;;5.32;2.85;;;16.60;93.90;;;;;;10525210;28;20052;-26
2023/02/11 12:16:05;;;;;;;19.67;10.35;;;17.20;91.00;;;;;;10519957;28;20114;-26
2023/02/11 12:21:24;;;;;;;8.10;3.70;;;15.80;93.00;;;;;;10518146;28;20536;-26
2023/02/11 12:26:35;;;;;;;5.90;2.53;;;17.20;82.10;;;;;;10520835;28;20052;-25
2023/02/11 12:31:49;;;;;;;12.07;5.93;;;17.80;87.20;;;;;;10515756;28;20080;-24
2023/02/11 12:37:02;;;;;;;19.42;9.30;;;16.90;91.60;;;;;;10511276;28;20062;-25
2023/02/11 12:47:57;;;;;;;13.48;6.25;;;17.90;85.40;;;;;;10517828;28;20036;-28
2023/02/11 12:53:20;;;;;;;10.88;4.57;;;16.60;91.70;;;;;;10516621;28;20079;-26
2023/02/11 12:58:26;;;;;;;12.15;5.97;;;16.20;94.90;;;;;;10521420;28;20087;-27
2023/02/11 13:03:34;;;;;;;16.70;7.75;;;15.50;96.60;;;;;;10526723;28;20065;-25
2023/02/11 13:08:40;;;;;;;4.80;2.83;;;16.10;94.10;;;;;;10513842;28;20089;-25
2023/02/11 13:13:49;;;;;;;7.88;3.70;;;16.40;90.90;;;;;;10525193;28;20056;-25
2023/02/11 13:18:55;;;;;;;7.07;3.42;;;15.70;97.00;;;;;;10504980;28;20147;-26
2023/02/11 13:24:06;;;;;;;5.45;3.25;;;16.90;91.80;;;;;;10504301;28;20059;-25
2023/02/11 13:29:23;;;;;;;13.30;3.05;;;16.10;95.90;;;;;;10512839;28;20051;-25
2023/02/11 13:34:56;;;;;;;6.90;3.42;;;16.40;93.20;;;;;;10500399;28;20564;-24
2023/02/11 13:39:59;;;;;;;9.48;3.50;;;16.40;94.20;;;;;;10507485;28;20047;-26
2023/02/11 13:45:01;;;;;;;11.63;5.18;;;15.40;96.30;;;;;;10504387;28;20040;-26
2023/02/11 13:50:09;;;;;;;7.97;2.72;;;15.70;86.70;;;;;;10520269;28;20040;-25
2023/02/11 13:55:22;;;;;;;8.38;3.78;;;17.00;82.90;;;;;;10516709;28;20062;-25
2023/02/11 14:00:47;;;;;;;9.13;3.67;;;16.10;90.40;;;;;;10524068;28;20082;-25
2023/02/11 14:11:47;;;;;;;9.50;4.38;;;16.30;91.50;;;;;;10515160;28;20707;-26
2023/02/11 14:17:32;;;;;;;12.88;3.42;;;15.20;91.90;;;;;;10502324;28;20457;-23
2023/02/11 14:22:47;;;;;;;3.95;2.60;;;17.20;92.20;;;;;;10513588;28;20102;-25
2023/02/11 14:27:54;;;;;;;5.00;2.30;;;17.50;89.90;;;;;;10523826;28;20588;-24
2023/02/11 14:33:11;;;;;;;14.88;4.55;;;17.40;90.90;;;;;;10521527;28;20066;-25
2023/02/11 14:38:21;;;;;;;14.43;4.55;;;17.50;86.90;;;;;;10529514;28;20036;-25
2023/02/11 14:43:26;;;;;;;6.43;4.05;;;16.20;93.00;;;;;;10519534;28;20052;-25
2023/02/11 14:48:31;;;;;;;7.10;3.08;;;18.00;86.30;;;;;;10513961;28;20126;-24
2023/02/11 14:53:36;;;;;;;6.65;2.10;;;17.20;91.60;;;;;;10526269;28;20044;-26
2023/02/11 14:58:45;;;;;;;9.65;3.03;;;18.90;83.90;;;;;;10515792;28;20075;-26
2023/02/11 15:03:49;;;;;;;13.43;2.17;;;18.90;81.20;;;;;;10524958;28;20139;-25
2023/02/11 15:08:56;;;;;;;5.35;2.40;;;19.60;76.10;;;;;;10520252;28;20044;-25
2023/02/11 15:14:01;;;;;;;8.90;3.70;;;19.00;78.30;;;;;;10530955;28;20095;-25
2023/02/11 15:19:06;;;;;;;4.53;2.40;;;18.10;84.40;;;;;;10524250;28;20547;-27
2023/02/11 15:24:24;;;;;;;6.82;2.35;;;19.50;68.10;;;;;;10515231;28;20041;-26
2023/02/11 15:29:26;;;;;;;6.40;2.22;;;18.90;78.90;;;;;;10506741;28;20173;-25
2023/02/11 15:34:28;;;;;;;3.67;1.90;;;19.60;73.80;;;;;;10523556;28;20106;-23
2023/02/11 15:39:35;;;;;;;4.65;2.20;;;19.00;78.10;;;;;;10526528;28;20155;-24
2023/02/11 15:44:37;;;;;;;8.55;3.38;;;18.70;82.30;;;;;;10523923;28;20041;-24
2023/02/11 15:49:43;;;;;;;7.90;1.90;;;17.50;80.00;;;;;;10524734;28;20055;-24
2023/02/11 15:54:48;;;;;;;5.00;2.08;;;19.00;77.70;;;;;;10526348;28;20449;-24
2023/02/11 15:59:52;;;;;;;13.68;3.92;;;19.20;75.70;;;;;;10522336;28;20821;-26
2023/02/11 16:04:56;;;;;;;6.10;2.92;;;17.50;69.30;;;;;;10524801;28;20036;-24
2023/02/11 16:10:00;;;;;;;5.57;1.75;;;17.00;90.90;;;;;;10526575;28;20036;-24
2023/02/11 16:15:29;;;;;;;9.75;2.60;;;18.70;82.10;;;;;;10524924;28;20156;-27
2023/02/11 16:20:32;;;;;;;3.75;1.83;;;18.70;79.90;;;;;;10526505;28;20155;-25
2023/02/11 16:25:35;;;;;;;;;;;18.70;81.20;;;;;;10519343;28;20076;-27
2023/02/11 16:30:39;;;;;;;3.20;1.67;;;17.40;91.20;;;;;;10530433;28;19966;-22
2023/02/11 16:35:43;;;;;;;7.30;3.00;;;19.30;78.20;;;;;;10523116;28;20056;-24
2023/02/11 16:40:47;;;;;;;6.15;1.65;;;18.30;79.00;;;;;;10520963;28;20117;-23
2023/02/11 16:45:49;;;;;;;3.80;1.92;;;18.90;71.40;;;;;;10507648;28;20127;-25
2023/02/11 16:50:52;;;;;;;4.80;1.98;;;19.60;74.40;;;;;;10516086;28;20105;-24
2023/02/11 16:55:55;;;;;;;4.65;1.40;;;19.80;73.70;;;;;;10517283;28;20806;-24
2023/02/11 17:00:57;;;;;;;6.32;1.70;;;19.60;74.40;;;;;;10523808;28;20055;-26
2023/02/11 17:06:01;;;;;;;;;;;20.00;71.90;;;;;;10516333;28;20094;-24
2023/02/11 17:11:05;;;;;;;2.78;1.58;;;19.50;74.20;;;;;;10522449;28;20423;-25
2023/02/11 17:16:15;;;;;;;5.57;1.65;;;19.70;71.50;;;;;;10511522;28;20750;-24
2023/02/11 17:21:17;;;;;;;3.70;1.50;;;19.00;75.10;;;;;;10521982;28;20063;-23
2023/02/11 17:26:21;;;;;;;3.92;1.58;;;19.80;72.70;;;;;;10527324;28;20083;-24
2023/02/11 17:31:23;;;;;;;3.78;2.20;;;19.20;77.60;;;;;;10515124;28;20048;-25
2023/02/11 17:36:25;;;;;;;5.93;2.70;;;19.90;72.40;;;;;;10517015;28;20066;-24
2023/02/11 17:41:29;;;;;;;7.82;2.88;;;20.00;71.80;;;;;;10518549;28;20048;-27
2023/02/11 17:46:31;;;;;;;7.43;3.42;;;20.00;71.80;;;;;;10524275;28;20098;-24
2023/02/11 17:51:34;;;;;;;9.57;3.47;;;20.00;71.40;;;;;;10515646;28;20442;-24
2023/02/11 17:56:37;;;;;;;9.43;3.70;;;20.00;71.10;;;;;;10516525;28;20398;-23
2023/02/11 18:01:41;;;;;;;10.88;3.42;;;19.60;63.50;;;;;;10515064;28;20074;-25
2023/02/11 18:06:44;;;;;;;9.38;3.60;;;19.40;75.60;;;;;;10527125;28;20105;-24
2023/02/11 18:11:49;;;;;;;10.95;3.47;;;19.20;78.00;;;;;;10515920;28;20596;-27
2023/02/11 18:16:51;;;;;;;8.35;2.92;;;19.70;73.60;;;;;;10511892;28;20056;-25
2023/02/11 18:21:53;;;;;;;11.70;2.75;;;19.80;73.20;;;;;;10514423;28;20080;-25
2023/02/11 18:26:57;;;;;;;8.60;2.95;;;19.90;72.20;;;;;;10519388;28;20143;-25
2023/02/11 18:31:59;;;;;;;9.48;2.83;;;20.00;72.00;;;;;;10521062;28;20044;-26
2023/02/11 18:37:01;;;;;;;5.13;2.97;;;19.80;72.10;;;;;;10500955;28;20136;-26
2023/02/11 18:42:04;;;;;;;8.40;3.05;;;19.70;72.80;;;;;;10510502;28;20082;-25
2023/02/11 18:47:06;;;;;;;7.97;4.55;;;18.80;78.60;;;;;;10513052;28;20067;-25
2023/02/11 18:52:08;;;;;;;10.32;4.07;;;18.50;78.40;;;;;;10518814;28;20079;-25
2023/02/11 18:57:11;;;;;;;10.82;2.80;;;19.30;69.80;;;;;;10504925;28;20048;-24
2023/02/11 19:02:13;;;;;;;9.40;2.92;;;19.30;71.50;;;;;;10515300;28;20139;-24
2023/02/11 19:07:15;;;;;;;10.77;3.55;;;17.20;88.50;;;;;;10526172;28;20043;-24
2023/02/11 19:12:19;;;;;;;4.10;2.33;;;18.30;85.90;;;;;;10530098;28;20515;-24
2023/02/11 19:17:21;;;;;;;6.47;2.83;;;19.20;79.30;;;;;;10519639;28;20047;-24
2023/02/11 19:22:22;;;;;;;4.70;2.65;;;20.00;71.00;;;;;;10508435;28;20079;-25
2023/02/11 19:27:26;;;;;;;3.97;2.38;;;20.10;69.60;;;;;;10519719;28;20052;-25
2023/02/11 19:32:28;;;;;;;5.22;2.55;;;20.00;70.80;;;;;;10520912;28;20753;-23
2023/02/11 19:37:30;;;;;;;5.78;2.50;;;20.10;70.00;;;;;;10519742;28;20051;-23
2023/02/11 19:42:33;;;;;;;4.93;2.15;;;20.10;69.40;;;;;;10520878;28;20062;-25
2023/02/11 19:47:35;;;;;;;8.52;2.72;;;20.20;68.80;;;;;;10509882;28;20583;-24
2023/02/11 19:52:38;;;;;;;3.13;1.92;;;20.20;68.50;;;;;;10513278;28;20157;-23
2023/02/11 19:57:42;;;;;;;4.30;2.05;;;20.40;68.30;;;;;;10507664;28;20083;-24
2023/02/11 20:02:45;;;;;;;4.32;2.45;;;20.40;67.80;;;;;;10499542;28;20177;-24
2023/02/11 20:07:47;;;;;;;4.50;2.20;;;20.40;68.30;;;;;;10514492;28;20047;-25
2023/02/11 20:12:51;;;;;;;4.55;2.85;;;20.30;68.40;;;;;;10517483;28;20066;-25
2023/02/11 20:17:53;;;;;;;3.50;1.95;;;20.30;69.20;;;;;;10510692;28;20136;-26
2023/02/11 20:22:54;;;;;;;12.68;2.47;;;20.40;68.70;;;;;;10509624;28;21051;-25
2023/02/11 20:27:58;;;;;;;5.13;2.22;;;20.40;68.70;;;;;;10520449;28;20049;-25
2023/02/11 20:32:59;;;;;;;4.40;2.47;;;20.30;68.80;;;;;;10513922;28;20144;-23
2023/02/11 20:38:01;;;;;;;4.60;2.55;;;20.20;68.90;;;;;;10523870;28;20137;-25
2023/02/11 20:43:05;;;;;;;9.80;2.70;;;20.30;68.60;;;;;;10505985;28;20052;-23
2023/02/11 20:48:07;;;;;;;10.20;2.97;;;20.20;68.50;;;;;;10509384;28;20068;-24
2023/02/11 20:53:10;;;;;;;13.63;2.47;;;20.20;68.40;;;;;;10520732;28;20088;-25
2023/02/11 20:58:13;;;;;;;14.60;2.65;;;20.10;68.30;;;;;;10523217;28;20056;-25
2023/02/11 21:03:15;;;;;;;4.60;2.38;;;20.10;68.00;;;;;;10520088;28;20048;-25
2023/02/11 21:08:17;;;;;;;10.20;2.45;;;20.10;68.10;;;;;;10528459;28;20052;-24
2023/02/11 21:13:20;;;;;;;15.00;2.50;;;20.10;67.80;;;;;;10520512;28;20056;-23
2023/02/11 21:18:22;;;;;;;8.30;2.22;;;20.10;67.80;;;;;;10521065;28;20134;-25
2023/02/11 21:23:24;;;;;;;7.47;2.28;;;20.10;67.70;;;;;;10518177;28;20164;-24
2023/02/11 21:28:27;;;;;;;9.45;2.35;;;20.20;67.70;;;;;;10518585;28;20052;-24
2023/02/11 21:33:32;;;;;;;7.80;2.20;;;20.10;67.30;;;;;;10514403;28;20161;-24
2023/02/11 21:38:34;;;;;;;5.68;2.42;;;20.10;67.40;;;;;;10517079;28;20131;-24
2023/02/11 21:43:37;;;;;;;;;;;20.10;67.30;;;;;;10519889;28;20076;-27
2023/02/11 21:48:39;;;;;;;7.05;2.25;;;20.10;67.50;;;;;;10515265;28;20008;-24
2023/02/11 21:53:41;;;;;;;2.88;1.83;;;20.10;67.50;;;;;;10513947;28;20075;-24
2023/02/11 21:58:45;;;;;;;5.90;1.50;;;20.00;68.60;;;;;;10497444;28;20506;-24
2023/02/11 22:03:47;;;;;;;6.32;1.92;;;20.00;68.10;;;;;;10493880;28;20493;-23
2023/02/11 22:08:50;;;;;;;5.80;2.30;;;20.00;68.40;;;;;;10513948;28;20071;-24
2023/02/11 22:13:56;;;;;;;5.20;1.85;;;20.00;67.80;;;;;;10515126;28;20055;-25
2023/02/11 22:18:58;;;;;;;6.40;2.00;;;19.90;68.40;;;;;;10511429;28;20040;-25
2023/02/11 22:24:00;;;;;;;6.80;1.63;;;20.00;67.80;;;;;;10507897;28;20655;-24
2023/02/11 22:29:03;;;;;;;7.40;2.05;;;19.90;67.80;;;;;;10514629;28;20052;-25
2023/02/11 22:34:05;;;;;;;9.63;2.05;;;19.90;67.60;;;;;;10516787;28;20142;-23
2023/02/11 22:39:08;;;;;;;;;;;19.90;67.80;;;;;;10509193;28;20055;-25
2023/02/11 22:44:12;;;;;;;2.33;1.58;;;19.80;68.40;;;;;;10500690;28;19926;-24
2023/02/11 22:49:16;;;;;;;6.38;2.42;;;19.80;67.70;;;;;;10505982;28;20048;-25
2023/02/11 22:54:19;;;;;;;4.45;1.67;;;19.80;67.80;;;;;;10511714;28;20143;-23
2023/02/11 22:59:22;;;;;;;5.50;1.58;;;19.80;67.60;;;;;;10513364;28;20067;-24
2023/02/11 23:04:24;;;;;;;4.82;2.38;;;19.80;67.40;;;;;;10512743;28;20555;-25
2023/02/11 23:09:26;;;;;;;9.23;2.28;;;19.80;67.40;;;;;;10512476;28;20080;-23
2023/02/11 23:14:29;;;;;;;3.63;1.27;;;19.70;67.20;;;;;;10512085;28;20080;-24
2023/02/11 23:19:31;;;;;;;4.93;1.63;;;19.70;67.40;;;;;;10512409;28;20068;-24
2023/02/11 23:24:33;;;;;;;3.22;1.50;;;19.60;67.40;;;;;;10514000;28;20052;-24
2023/02/11 23:29:36;;;;;;;2.88;1.38;;;19.70;67.30;;;;;;10512970;28;20048;-23
2023/02/11 23:34:38;;;;;;;3.95;1.67;;;19.60;67.10;;;;;;10515179;28;20048;-23
2023/02/11 23:39:40;;;;;;;3.47;1.05;;;19.60;67.30;;;;;;10516151;28;20060;-25
2023/02/11 23:44:43;;;;;;;;;;;19.70;67.00;;;;;;10493525;28;20083;-24
2023/02/11 23:49:45;;;;;;;2.95;1.55;;;19.60;67.10;;;;;;10507478;28;20747;-24
2023/02/11 23:54:48;;;;;;;4.95;1.35;;;19.60;67.00;;;;;;10509116;28;20232;-25
2023/02/11 23:59:51;;;;;;;2.20;1.00;;;19.60;66.80;;;;;;10527764;28;20059;-30
